createdAt,value
2019-03-31T00:01:07.570Z,56.77
2019-03-31T00:03:27.025Z,58.50
2019-03-31T00:05:55.639Z,52.38
2019-03-31T00:08:24.139Z,47.00
2019-03-31T00:10:52.625Z,50.50
2019-03-31T00:13:21.120Z,48.92
2019-03-31T00:15:49.587Z,46.77
2019-03-31T00:18:18.072Z,51.08
2019-03-31T00:20:46.576Z,57.93
2019-03-31T00:23:15.044Z,45.00
2019-03-31T00:25:45.190Z,56.83
2019-03-31T00:28:13.670Z,79.32
2019-03-31T00:30:42.159Z,55.30
2019-03-31T00:33:10.671Z,60.48
2019-03-31T00:35:39.179Z,49.67
2019-03-31T00:38:07.659Z,50.95
2019-03-31T00:40:36.162Z,46.25
2019-03-31T00:43:04.722Z,44.05
2019-03-31T00:45:33.478Z,47.65
2019-03-31T00:48:01.945Z,43.42
2019-03-31T00:50:30.462Z,46.35
2019-03-31T00:52:58.964Z,53.50
2019-03-31T00:55:27.508Z,45.55
2019-03-31T00:57:56.008Z,45.25
2019-03-31T01:00:38.973Z,46.70
2019-03-31T01:03:08.003Z,45.50
2019-03-31T01:05:38.991Z,48.20
2019-03-31T01:08:07.902Z,48.83
2019-03-31T01:10:36.532Z,48.38
2019-03-31T01:13:05.769Z,48.45
2019-03-31T01:15:35.377Z,47.58
2019-03-31T01:18:04.393Z,50.78
2019-03-31T01:20:32.944Z,49.00
2019-03-31T01:23:01.460Z,48.15
2019-03-31T01:25:30.002Z,47.43
2019-03-31T01:28:02.758Z,48.45
2019-03-31T01:30:33.898Z,49.63
2019-03-31T01:33:02.871Z,53.35
2019-03-31T01:35:31.530Z,58.08
2019-03-31T01:38:00.022Z,56.40
2019-03-31T01:40:28.502Z,57.67
2019-03-31T01:42:57.144Z,48.95
2019-03-31T01:45:25.806Z,42.93
2019-03-31T01:47:54.314Z,43.25
2019-03-31T01:50:23.324Z,44.58
2019-03-31T01:52:51.800Z,51.65
2019-03-31T01:55:20.334Z,53.23
2019-03-31T01:57:48.848Z,53.60
2019-03-31T02:00:35.957Z,61.65
2019-03-31T02:03:04.778Z,56.00
2019-03-31T02:05:33.390Z,50.50
2019-03-31T02:08:01.934Z,57.30
2019-03-31T02:10:30.411Z,61.37
2019-03-31T02:12:58.886Z,57.73
2019-03-31T02:15:27.371Z,56.70
2019-03-31T02:17:55.844Z,57.62
2019-03-31T02:20:24.346Z,62.55
2019-03-31T02:22:52.812Z,65.00
2019-03-31T02:25:21.311Z,62.60
2019-03-31T02:27:49.772Z,54.88
2019-03-31T02:30:18.396Z,47.58
2019-03-31T02:32:46.861Z,46.73
2019-03-31T02:35:15.435Z,46.35
2019-03-31T02:37:43.905Z,49.88
2019-03-31T02:40:12.448Z,60.78
2019-03-31T02:42:40.953Z,74.62
2019-03-31T02:45:09.667Z,76.40
2019-03-31T02:47:39.680Z,69.03
2019-03-31T02:50:08.984Z,69.87
2019-03-31T02:52:37.476Z,68.22
2019-03-31T02:55:06.912Z,71.47
2019-03-31T02:57:35.853Z,71.87
2019-03-31T03:00:05.554Z,70.65
2019-03-31T03:02:42.250Z,64.07
2019-03-31T03:05:18.842Z,64.00
2019-03-31T03:07:39.569Z,57.93
2019-03-31T03:10:09.394Z,56.80
2019-03-31T03:12:39.802Z,68.70
2019-03-31T03:15:08.707Z,81.00
2019-03-31T03:17:37.192Z,86.37
2019-03-31T03:20:06.202Z,94.50
2019-03-31T03:22:34.682Z,91.37
2019-03-31T03:25:03.152Z,90.77
2019-03-31T03:27:31.656Z,93.05
2019-03-31T03:30:00.427Z,97.30
2019-03-31T03:32:29.391Z,109.87
2019-03-31T03:34:57.957Z,114.75
2019-03-31T03:37:26.463Z,124.07
2019-03-31T03:39:54.937Z,121.33
2019-03-31T03:42:23.449Z,107.87
2019-03-31T03:44:51.948Z,90.10
2019-03-31T03:47:20.447Z,69.47
2019-03-31T03:49:48.915Z,76.72
2019-03-31T03:52:17.413Z,88.70
2019-03-31T03:54:45.917Z,87.20
2019-03-31T03:57:14.387Z,93.85
2019-03-31T03:59:42.894Z,86.82
2019-03-31T04:02:11.409Z,83.42
2019-03-31T04:04:39.968Z,77.42
2019-03-31T04:07:08.433Z,79.22
2019-03-31T04:09:36.917Z,77.25
2019-03-31T04:12:05.497Z,137.50
2019-03-31T04:14:33.975Z,150.97
2019-03-31T04:17:02.467Z,138.25
2019-03-31T04:19:30.941Z,130.10
2019-03-31T04:21:59.454Z,188.57
2019-03-31T04:24:27.933Z,164.37
2019-03-31T04:26:56.469Z,144.32
2019-03-31T04:29:24.936Z,93.07
2019-03-31T04:31:53.439Z,69.03
2019-03-31T04:34:21.914Z,65.92
2019-03-31T04:36:50.416Z,59.65
2019-03-31T04:39:18.887Z,57.60
2019-03-31T04:41:47.392Z,60.20
2019-03-31T04:44:17.272Z,66.80
2019-03-31T04:46:45.772Z,71.55
2019-03-31T04:49:14.256Z,68.07
2019-03-31T04:51:42.722Z,61.83
2019-03-31T04:54:11.211Z,57.93
2019-03-31T04:56:39.677Z,63.08
2019-03-31T04:59:08.160Z,62.15
2019-03-31T05:01:36.661Z,59.35
2019-03-31T05:04:05.504Z,56.30
2019-03-31T05:06:34.083Z,53.05
2019-03-31T05:09:02.570Z,47.65
2019-03-31T05:11:31.064Z,46.35
2019-03-31T05:13:59.538Z,44.15
2019-03-31T05:16:28.015Z,48.02
2019-03-31T05:18:56.500Z,45.12
2019-03-31T05:21:24.997Z,42.35
2019-03-31T05:23:53.527Z,41.40
2019-03-31T05:26:22.019Z,42.08
2019-03-31T05:28:50.521Z,41.00
2019-03-31T05:31:19.001Z,37.45
2019-03-31T05:33:47.480Z,38.55
2019-03-31T05:36:15.947Z,38.58
2019-03-31T05:38:44.443Z,36.77
2019-03-31T05:41:12.894Z,38.50
2019-03-31T05:43:41.470Z,38.30
2019-03-31T05:46:09.941Z,36.25
2019-03-31T05:48:38.435Z,40.83
2019-03-31T05:51:06.900Z,44.65
2019-03-31T05:53:35.398Z,43.98
2019-03-31T05:56:04.109Z,41.00
2019-03-31T05:58:32.659Z,41.98
2019-03-31T06:01:01.718Z,38.20
2019-03-31T06:03:30.183Z,37.33
2019-03-31T06:05:58.687Z,44.67
2019-03-31T06:08:27.163Z,42.03
2019-03-31T06:10:55.490Z,40.58
2019-03-31T06:13:24.032Z,41.10
2019-03-31T06:15:52.584Z,35.58
2019-03-31T06:18:21.051Z,36.10
2019-03-31T06:20:49.608Z,33.63
2019-03-31T06:23:18.980Z,45.58
2019-03-31T06:25:47.487Z,41.88
2019-03-31T06:28:15.963Z,43.08
2019-03-31T06:30:46.041Z,49.30
2019-03-31T06:33:14.522Z,44.75
2019-03-31T06:35:42.990Z,39.20
2019-03-31T06:38:11.479Z,68.47
2019-03-31T06:40:41.261Z,50.85
2019-03-31T06:43:09.748Z,46.18
2019-03-31T06:45:38.222Z,51.10
2019-03-31T06:48:06.732Z,32.73
2019-03-31T06:50:35.284Z,35.20
2019-03-31T06:53:03.785Z,70.85
2019-03-31T06:55:32.258Z,43.35
2019-03-31T06:58:00.797Z,42.93
2019-03-31T07:00:29.337Z,39.38
2019-03-31T07:02:57.810Z,29.10
2019-03-31T07:05:26.388Z,58.95
2019-03-31T07:07:54.871Z,41.88
2019-03-31T07:10:23.427Z,30.17
2019-03-31T07:12:51.924Z,29.75
2019-03-31T07:15:20.427Z,29.05
2019-03-31T07:17:48.994Z,47.75
2019-03-31T07:20:18.200Z,28.67
2019-03-31T07:22:46.699Z,37.85
2019-03-31T07:25:15.707Z,31.93
2019-03-31T07:27:44.256Z,33.10
2019-03-31T07:30:15.373Z,36.05
2019-03-31T07:32:44.008Z,37.17
2019-03-31T07:35:18.586Z,37.03
2019-03-31T07:37:47.558Z,31.57
2019-03-31T07:40:16.174Z,38.58
2019-03-31T07:42:44.867Z,32.03
2019-03-31T07:45:15.206Z,30.20
2019-03-31T07:47:44.219Z,30.35
2019-03-31T07:50:15.411Z,33.53
2019-03-31T07:52:44.120Z,34.25
2019-03-31T07:55:13.335Z,36.23
2019-03-31T07:57:42.391Z,60.88
2019-03-31T08:00:21.789Z,28.25
2019-03-31T08:02:50.273Z,36.30
2019-03-31T08:05:32.369Z,26.10
2019-03-31T08:07:49.928Z,26.40
2019-03-31T08:10:19.871Z,30.37
2019-03-31T08:12:48.450Z,29.98
2019-03-31T08:15:18.560Z,39.80
2019-03-31T08:17:47.049Z,39.53
2019-03-31T08:20:17.726Z,35.30
2019-03-31T08:22:46.299Z,41.18
2019-03-31T08:25:15.327Z,34.48
2019-03-31T08:27:43.813Z,30.82
2019-03-31T08:30:14.457Z,27.95
2019-03-31T08:32:43.006Z,28.05
2019-03-31T08:35:11.935Z,26.15
2019-03-31T08:37:40.504Z,26.70
2019-03-31T08:40:11.164Z,28.15
2019-03-31T08:42:39.640Z,37.75
2019-03-31T08:45:08.562Z,36.42
2019-03-31T08:47:37.700Z,33.35
2019-03-31T08:50:07.039Z,70.80
2019-03-31T08:52:35.534Z,22.37
2019-03-31T08:55:04.973Z,21.23
2019-03-31T08:57:33.454Z,23.05
2019-03-31T09:00:02.023Z,26.37
2019-03-31T09:02:34.832Z,27.22
2019-03-31T09:05:04.688Z,27.82
2019-03-31T09:07:33.166Z,28.95
2019-03-31T09:10:01.646Z,24.98
2019-03-31T09:12:30.194Z,29.35
2019-03-31T09:14:58.678Z,25.97
2019-03-31T09:17:27.153Z,23.60
2019-03-31T09:19:55.642Z,20.80
2019-03-31T09:22:24.130Z,23.40
2019-03-31T09:24:52.602Z,22.45
2019-03-31T09:27:21.100Z,24.82
2019-03-31T09:29:49.603Z,21.17
2019-03-31T09:32:18.096Z,28.95
2019-03-31T09:34:46.603Z,21.52
2019-03-31T09:37:15.074Z,19.90
2019-03-31T09:39:43.556Z,22.40
2019-03-31T09:42:12.032Z,29.02
2019-03-31T09:44:40.539Z,25.35
2019-03-31T09:47:09.005Z,52.23
2019-03-31T09:49:37.508Z,19.50
2019-03-31T09:52:06.011Z,19.60
2019-03-31T09:54:34.486Z,22.17
2019-03-31T09:57:02.971Z,25.50
2019-03-31T09:59:31.461Z,23.90
2019-03-31T10:01:59.960Z,23.00
2019-03-31T10:04:28.436Z,29.45
2019-03-31T10:06:57.377Z,28.32
2019-03-31T10:09:25.858Z,22.60
2019-03-31T10:11:54.363Z,19.92
2019-03-31T10:14:22.842Z,21.82
2019-03-31T10:16:51.357Z,19.57
2019-03-31T10:19:19.827Z,22.25
2019-03-31T10:21:48.369Z,23.27
2019-03-31T10:24:16.876Z,20.88
2019-03-31T10:26:45.380Z,19.73
2019-03-31T10:29:13.858Z,19.65
2019-03-31T10:31:42.369Z,36.60
2019-03-31T10:34:10.979Z,19.48
2019-03-31T10:36:44.623Z,23.90
2019-03-31T10:39:10.243Z,17.98
2019-03-31T10:41:38.743Z,16.87
2019-03-31T10:44:07.289Z,20.40
2019-03-31T10:46:35.795Z,16.23
2019-03-31T10:49:05.614Z,15.85
2019-03-31T10:51:34.185Z,15.98
2019-03-31T10:54:04.615Z,15.93
2019-03-31T10:56:33.010Z,15.78
2019-03-31T10:59:01.527Z,17.75
2019-03-31T11:01:29.996Z,16.97
2019-03-31T11:03:58.644Z,17.50
2019-03-31T11:06:27.146Z,14.33
2019-03-31T11:08:55.650Z,14.68
2019-03-31T11:11:24.144Z,16.02
2019-03-31T11:13:53.783Z,18.55
2019-03-31T11:16:24.553Z,20.62
2019-03-31T11:18:53.027Z,15.80
2019-03-31T11:21:23.169Z,16.93
2019-03-31T11:23:51.634Z,12.07
2019-03-31T11:26:20.121Z,10.28
2019-03-31T11:28:48.612Z,13.20
2019-03-31T11:31:18.045Z,15.35
2019-03-31T11:33:46.656Z,12.13
2019-03-31T11:36:15.149Z,11.20
2019-03-31T11:38:43.646Z,13.05
2019-03-31T11:41:12.131Z,12.90
2019-03-31T11:43:40.629Z,11.78
2019-03-31T11:46:09.100Z,25.65
2019-03-31T11:48:37.676Z,24.98
2019-03-31T11:51:06.161Z,12.70
2019-03-31T11:53:34.658Z,11.35
2019-03-31T11:56:03.196Z,15.23
2019-03-31T11:58:32.465Z,15.53
2019-03-31T12:01:01.052Z,12.78
2019-03-31T12:03:31.192Z,16.35
2019-03-31T12:05:59.743Z,12.25
2019-03-31T12:08:28.262Z,16.00
2019-03-31T12:10:56.730Z,12.43
2019-03-31T12:13:25.232Z,14.70
2019-03-31T12:15:53.701Z,17.55
2019-03-31T12:18:24.291Z,12.55
2019-03-31T12:20:52.789Z,15.23
2019-03-31T12:23:21.279Z,23.27
2019-03-31T12:25:49.763Z,22.90
2019-03-31T12:28:18.267Z,20.50
2019-03-31T12:30:46.743Z,21.60
2019-03-31T12:33:15.249Z,25.00
2019-03-31T12:35:43.723Z,14.20
2019-03-31T12:38:12.237Z,16.85
2019-03-31T12:40:40.786Z,16.75
2019-03-31T12:43:09.256Z,16.42
2019-03-31T12:45:37.815Z,18.65
2019-03-31T12:48:06.457Z,22.40
2019-03-31T12:50:35.001Z,21.10
2019-03-31T12:53:03.493Z,34.53
2019-03-31T12:55:31.981Z,25.55
2019-03-31T12:58:00.484Z,30.08
2019-03-31T13:00:28.953Z,18.87
2019-03-31T13:02:57.529Z,16.70
2019-03-31T13:05:26.002Z,16.48
2019-03-31T13:07:56.832Z,24.90
2019-03-31T13:10:25.583Z,23.03
2019-03-31T13:12:54.063Z,21.23
2019-03-31T13:15:22.604Z,18.80
2019-03-31T13:17:51.108Z,14.47
2019-03-31T13:20:19.727Z,18.65
2019-03-31T13:22:48.214Z,21.62
2019-03-31T13:25:16.779Z,21.97
2019-03-31T13:27:45.357Z,17.87
2019-03-31T13:30:14.366Z,12.53
2019-03-31T13:32:43.110Z,14.90
2019-03-31T13:35:11.662Z,17.92
2019-03-31T13:37:40.174Z,15.13
2019-03-31T13:40:08.993Z,15.98
2019-03-31T13:42:37.638Z,20.10
2019-03-31T13:45:07.551Z,16.95
2019-03-31T13:47:36.048Z,17.87
2019-03-31T13:50:07.901Z,16.52
2019-03-31T13:55:09.036Z,15.88
2019-03-31T13:57:39.426Z,17.50
2019-03-31T14:00:10.250Z,19.20
2019-03-31T14:02:39.481Z,20.73
2019-03-31T14:05:08.048Z,24.67
2019-03-31T14:07:36.522Z,18.10
2019-03-31T14:10:06.837Z,20.85
2019-03-31T14:12:35.387Z,19.92
2019-03-31T14:15:18.479Z,32.33
2019-03-31T14:17:36.221Z,26.33
2019-03-31T14:20:07.273Z,28.92
2019-03-31T14:22:35.816Z,54.27
2019-03-31T14:25:05.956Z,83.05
2019-03-31T14:27:34.426Z,20.95
2019-03-31T14:30:03.751Z,23.27
2019-03-31T14:32:32.220Z,22.37
2019-03-31T14:35:00.850Z,45.48
2019-03-31T14:37:29.359Z,39.27
2019-03-31T14:39:57.829Z,34.45
2019-03-31T14:42:26.584Z,34.58
2019-03-31T14:44:55.075Z,25.12
2019-03-31T14:47:23.594Z,35.23
2019-03-31T14:49:52.072Z,33.42
2019-03-31T14:52:27.324Z,30.25
2019-03-31T14:54:50.829Z,50.08
2019-03-31T14:57:19.303Z,24.75
2019-03-31T14:59:47.840Z,47.55
2019-03-31T15:02:16.312Z,42.15
2019-03-31T15:04:44.793Z,32.23
2019-03-31T15:07:13.287Z,30.02
2019-03-31T15:09:41.752Z,30.52
2019-03-31T15:12:10.233Z,43.23
2019-03-31T15:14:38.703Z,25.57
2019-03-31T15:17:07.198Z,79.58
2019-03-31T15:19:35.680Z,37.25
2019-03-31T15:22:04.149Z,38.45
2019-03-31T15:24:32.667Z,68.40
2019-03-31T15:27:01.160Z,43.38
2019-03-31T15:29:29.641Z,66.28
2019-03-31T15:31:58.119Z,52.33
2019-03-31T15:34:26.630Z,46.92
2019-03-31T15:36:55.103Z,60.05
2019-03-31T15:39:23.583Z,82.08
2019-03-31T15:41:52.087Z,31.30
2019-03-31T15:44:20.553Z,32.20
2019-03-31T15:46:49.073Z,24.40
2019-03-31T15:49:17.539Z,31.60
2019-03-31T15:51:46.013Z,32.70
2019-03-31T15:54:14.520Z,28.40
2019-03-31T15:56:43.065Z,26.12
2019-03-31T15:59:11.544Z,31.75
2019-03-31T16:01:40.016Z,27.10
2019-03-31T16:04:08.516Z,27.30
2019-03-31T16:06:38.116Z,31.40
2019-03-31T16:09:22.480Z,29.57
2019-03-31T16:11:38.055Z,31.90
2019-03-31T16:14:06.560Z,37.85
2019-03-31T16:16:35.040Z,46.80
2019-03-31T16:19:03.624Z,40.25
2019-03-31T16:21:32.102Z,43.35
2019-03-31T16:24:00.575Z,45.43
2019-03-31T16:26:29.066Z,73.95
2019-03-31T16:28:57.574Z,33.33
2019-03-31T16:31:26.045Z,63.75
2019-03-31T16:33:54.548Z,48.70
2019-03-31T16:36:23.016Z,48.98
2019-03-31T16:38:51.538Z,45.35
2019-03-31T16:41:20.005Z,57.62
2019-03-31T16:43:48.481Z,29.42
2019-03-31T16:46:16.980Z,40.40
2019-03-31T16:48:45.484Z,54.73
2019-03-31T16:51:13.988Z,39.55
2019-03-31T16:53:42.489Z,41.35
2019-03-31T16:56:11.003Z,44.58
2019-03-31T16:58:39.473Z,39.55
2019-03-31T17:01:08.010Z,43.73
2019-03-31T17:03:36.519Z,57.62
2019-03-31T17:06:05.094Z,49.73
2019-03-31T17:08:33.558Z,50.55
2019-03-31T17:11:05.356Z,50.08
2019-03-31T17:13:32.264Z,49.65
2019-03-31T17:16:00.751Z,58.20
2019-03-31T17:18:29.219Z,50.05
2019-03-31T17:20:57.727Z,59.23
2019-03-31T17:23:26.219Z,106.07
2019-03-31T17:25:54.761Z,45.75
2019-03-31T17:28:23.269Z,57.40
2019-03-31T17:30:51.742Z,60.35
2019-03-31T17:33:20.302Z,67.00
2019-03-31T17:35:48.787Z,102.17
2019-03-31T17:38:17.259Z,39.08
2019-03-31T17:40:45.772Z,34.13
2019-03-31T17:43:14.242Z,39.30
2019-03-31T17:45:42.992Z,47.05
2019-03-31T17:48:11.432Z,48.87
2019-03-31T17:50:39.905Z,68.67
2019-03-31T17:53:08.440Z,42.58
2019-03-31T17:55:36.914Z,42.10
2019-03-31T17:58:05.462Z,54.23
2019-03-31T18:00:33.971Z,42.43
2019-03-31T18:03:04.583Z,80.10
2019-03-31T18:05:33.074Z,50.35
2019-03-31T18:08:01.585Z,52.23
2019-03-31T18:10:30.066Z,51.90
2019-03-31T18:12:58.553Z,49.27
2019-03-31T18:15:27.019Z,37.05
2019-03-31T18:17:55.529Z,40.38
2019-03-31T18:20:23.802Z,35.05
2019-03-31T18:22:52.287Z,44.18
2019-03-31T18:25:20.761Z,76.30
2019-03-31T18:27:49.257Z,110.40
2019-03-31T18:30:18.974Z,54.88
2019-03-31T18:32:47.441Z,47.03
2019-03-31T18:35:16.982Z,50.75
2019-03-31T18:37:45.638Z,43.52
2019-03-31T18:40:14.663Z,46.63
2019-03-31T18:42:43.156Z,49.90
2019-03-31T18:45:12.933Z,47.65
2019-03-31T18:47:41.411Z,40.92
2019-03-31T18:50:10.146Z,44.03
2019-03-31T18:52:38.669Z,42.30
2019-03-31T18:55:25.593Z,38.33
2019-03-31T18:57:55.728Z,39.83
2019-03-31T19:00:42.311Z,47.93
2019-03-31T19:03:18.221Z,33.13
2019-03-31T19:05:48.359Z,40.45
2019-03-31T19:08:36.250Z,37.83
2019-03-31T19:11:10.374Z,40.63
2019-03-31T19:13:54.520Z,38.92
2019-03-31T19:18:58.030Z,45.78
2019-03-31T19:21:33.804Z,44.98
2019-03-31T19:24:19.985Z,46.18
2019-03-31T19:27:05.271Z,43.35
2019-03-31T19:29:35.375Z,43.17
2019-03-31T19:32:05.480Z,44.80
2019-03-31T19:34:38.634Z,42.95
2019-03-31T19:37:23.740Z,42.90
2019-03-31T19:39:53.914Z,40.43
2019-03-31T19:42:29.564Z,38.15
2019-03-31T19:45:15.980Z,37.58
2019-03-31T19:47:46.089Z,32.93
2019-03-31T19:50:25.260Z,32.17
2019-03-31T19:53:13.718Z,34.43
2019-03-31T19:55:43.865Z,43.78
2019-03-31T19:58:13.975Z,54.13
2019-03-31T20:00:59.194Z,44.13
2019-03-31T20:03:29.311Z,43.30
2019-03-31T20:05:59.466Z,46.75
2019-03-31T20:08:45.752Z,44.15
2019-03-31T20:11:15.887Z,43.35
2019-03-31T20:13:59.657Z,29.92
2019-03-31T20:16:29.846Z,32.48
2019-03-31T20:19:14.691Z,32.70
2019-03-31T20:21:47.687Z,32.15
2019-03-31T20:24:29.860Z,32.53
2019-03-31T20:27:00.000Z,33.75
2019-03-31T20:29:41.865Z,29.07
2019-03-31T20:32:20.551Z,36.60
2019-03-31T20:34:56.637Z,36.77
2019-03-31T20:37:29.715Z,43.40
2019-03-31T20:40:18.583Z,42.62
2019-03-31T20:42:48.694Z,44.08
2019-03-31T20:45:17.150Z,33.67
2019-03-31T20:47:45.627Z,29.48
2019-03-31T20:50:14.293Z,35.83
2019-03-31T20:52:44.343Z,40.90
2019-03-31T20:55:16.612Z,39.45
2019-03-31T20:57:43.203Z,26.12
2019-03-31T21:00:12.104Z,21.90
2019-03-31T21:02:40.585Z,20.43
2019-03-31T21:05:09.187Z,22.87
2019-03-31T21:07:37.723Z,20.72
2019-03-31T21:10:06.954Z,17.85
2019-03-31T21:12:35.449Z,36.53
2019-03-31T21:15:05.346Z,23.25
2019-03-31T21:17:33.807Z,17.73
2019-03-31T21:20:04.366Z,17.75
2019-03-31T21:22:32.847Z,18.65
2019-03-31T21:25:01.343Z,21.05
2019-03-31T21:27:29.813Z,18.50
2019-03-31T21:29:58.291Z,20.20
2019-03-31T21:32:26.772Z,22.13
2019-03-31T21:34:55.248Z,15.48
2019-03-31T21:37:25.233Z,14.65
2019-03-31T21:39:53.789Z,18.73
2019-03-31T21:42:22.270Z,21.87
2019-03-31T21:44:50.743Z,17.70
2019-03-31T21:47:19.240Z,18.90
2019-03-31T21:49:47.738Z,18.65
2019-03-31T21:52:16.206Z,17.42
2019-03-31T21:54:44.702Z,20.88
2019-03-31T21:57:13.466Z,17.32
2019-03-31T21:59:41.931Z,19.07
2019-03-31T22:02:10.410Z,18.42
2019-03-31T22:04:38.891Z,21.93
2019-03-31T22:07:07.428Z,21.25
2019-03-31T22:09:35.916Z,19.23
2019-03-31T22:12:04.579Z,20.50
2019-03-31T22:14:33.083Z,17.62
2019-03-31T22:17:01.589Z,18.37
2019-03-31T22:19:30.059Z,19.77
2019-03-31T22:21:58.538Z,19.07
2019-03-31T22:24:27.017Z,20.60
2019-03-31T22:26:55.487Z,18.73
2019-03-31T22:29:23.967Z,20.10
2019-03-31T22:31:52.433Z,17.57
2019-03-31T22:34:20.945Z,17.77
2019-03-31T22:36:49.416Z,17.90
2019-03-31T22:39:17.887Z,18.80
2019-03-31T22:41:46.405Z,22.00
2019-03-31T22:44:14.843Z,24.50
2019-03-31T22:46:53.752Z,23.12
2019-03-31T22:49:13.542Z,22.52
2019-03-31T22:51:42.016Z,24.85
2019-03-31T22:54:10.517Z,28.55
2019-03-31T22:56:38.983Z,29.75
2019-03-31T22:59:09.723Z,27.60
2019-03-31T23:01:37.740Z,27.02
2019-03-31T23:04:06.238Z,26.27
2019-03-31T23:06:34.706Z,27.62
2019-03-31T23:09:04.968Z,32.75
2019-03-31T23:11:33.433Z,43.17
2019-03-31T23:14:01.982Z,41.15
2019-03-31T23:16:30.449Z,41.45
2019-03-31T23:18:58.982Z,39.42
2019-03-31T23:21:27.460Z,41.23
2019-03-31T23:23:55.973Z,46.83
2019-03-31T23:26:24.523Z,48.98
2019-03-31T23:28:53.097Z,47.88
2019-03-31T23:31:21.567Z,43.70
2019-03-31T23:33:50.061Z,37.80
2019-03-31T23:36:18.562Z,36.38
2019-03-31T23:38:47.062Z,37.70
2019-03-31T23:41:15.535Z,35.33
2019-03-31T23:43:44.056Z,33.55
2019-03-31T23:46:13.154Z,30.97
2019-03-31T23:48:41.622Z,28.45
2019-03-31T23:51:10.118Z,28.55
2019-03-31T23:53:38.650Z,29.07
2019-03-31T23:56:07.222Z,25.82
2019-03-31T23:58:35.684Z,24.70
